Terminal Aerodrome Forecast
Issued by NWS

Home | Current Version | Previous Version | Text Only | Print | Product List | Glossary On
Versions: 1 2 3 4 5 6 7 8 9 10 11 12
435
FTUS43 KJKL 261720
TAFSME
TAF
KSME 261720Z 2618/2718 28008KT P6SM FEW100 FEW200
     FM270200 00000KT P6SM SCT080 BKN150
     FM271000 33004KT P6SM VCSH SCT060 BKN120=

USA.gov is the U.S. government's official web portal to all federal, state and local government web resources and services.